Time;durP1;ratioP1;P1;durP2;ratioP2;P2;SDS_P1;SDS_P2;PMS_P1;PMS_P2;Temp;Humidity;BMP_temperature;BMP_pressure;BME280_temperature;BME280_humidity;BME280_pressure;Samples;Min_cycle;Max_cycle;Signal;HPM_P1;HPM_P2
2021/03/08 00:00:19;;;;;;;40.95;19.08;;;;;;;6.49;65.18;101486.00;4421128;32;20068;-74
2021/03/08 00:02:46;;;;;;;37.40;18.10;;;;;;;6.56;65.02;101489.66;4433162;26;20091;-75
2021/03/08 00:05:13;;;;;;;40.03;18.85;;;;;;;6.50;65.14;101488.41;4418556;32;20057;-74
2021/03/08 00:07:39;;;;;;;34.42;17.58;;;;;;;6.55;65.22;101484.44;4424994;32;20737;-74
2021/03/08 00:10:07;;;;;;;35.08;17.25;;;;;;;6.49;65.11;101491.59;4421202;32;20416;-76
2021/03/08 00:12:33;;;;;;;41.40;19.33;;;;;;;6.48;65.14;101482.44;4423308;32;20045;-74
2021/03/08 00:14:59;;;;;;;38.80;17.73;;;;;;;6.50;65.19;101482.81;4431397;32;20102;-74
2021/03/08 00:17:24;;;;;;;35.63;15.68;;;;;;;6.47;65.05;101483.63;4429419;32;20030;-74
2021/03/08 00:19:51;;;;;;;30.55;16.05;;;;;;;6.46;65.06;101473.63;4430176;32;20061;-77
2021/03/08 00:22:17;;;;;;;28.70;16.33;;;;;;;6.44;65.14;101475.22;4424865;32;20071;-74
2021/03/08 00:24:43;;;;;;;30.83;14.73;;;;;;;6.42;65.22;101474.81;4421216;32;20068;-75
2021/03/08 00:27:10;;;;;;;34.47;15.23;;;;;;;6.38;65.23;101468.41;4423921;32;20050;-74
2021/03/08 00:29:35;;;;;;;33.72;15.73;;;;;;;6.33;65.44;101475.19;4427428;32;20043;-74
2021/03/08 00:32:01;;;;;;;30.90;14.23;;;;;;;6.32;65.40;101476.34;4421120;32;20029;-74
2021/03/08 00:34:27;;;;;;;37.08;14.40;;;;;;;6.27;65.44;101481.53;4431746;32;20477;-76
2021/03/08 00:36:52;;;;;;;23.40;12.13;;;;;;;6.28;65.03;101478.34;4427247;32;20448;-74
2021/03/08 00:39:18;;;;;;;23.00;12.20;;;;;;;6.27;64.92;101481.53;4435381;32;20409;-74
2021/03/08 00:41:44;;;;;;;26.02;11.12;;;;;;;6.29;64.78;101477.13;4422803;32;20083;-74
2021/03/08 00:44:09;;;;;;;22.27;12.15;;;;;;;6.20;64.82;101478.69;4419031;32;20050;-74
2021/03/08 00:46:36;;;;;;;27.85;11.98;;;;;;;6.21;64.49;101478.31;4420461;32;20041;-74
2021/03/08 00:49:02;;;;;;;24.20;11.23;;;;;;;6.30;64.41;101472.34;4423074;32;20062;-75
2021/03/08 00:51:27;;;;;;;25.95;11.88;;;;;;;6.24;64.42;101471.94;4431385;32;20077;-74
2021/03/08 00:53:53;;;;;;;27.67;11.52;;;;;;;6.31;63.87;101474.75;4421286;32;20029;-74
2021/03/08 00:56:19;;;;;;;24.55;11.82;;;;;;;6.31;63.75;101468.34;4428908;32;20042;-74
2021/03/08 00:58:44;;;;;;;20.98;11.40;;;;;;;6.42;63.29;101470.03;4411268;32;20042;-74
2021/03/08 01:01:10;;;;;;;24.70;11.73;;;;;;;6.51;62.88;101473.25;4425064;32;20064;-74
2021/03/08 01:03:35;;;;;;;22.42;10.95;;;;;;;6.58;62.89;101466.88;4413413;32;20062;-74
2021/03/08 01:06:02;;;;;;;24.50;11.25;;;;;;;6.64;62.83;101465.31;4420301;32;20080;-74
2021/03/08 01:08:28;;;;;;;25.27;10.90;;;;;;;6.60;62.67;101464.50;4418099;32;20105;-74
2021/03/08 01:10:54;;;;;;;23.92;11.18;;;;;;;6.70;62.51;101464.53;4412189;32;20045;-74
2021/03/08 01:13:19;;;;;;;25.92;12.00;;;;;;;6.68;62.61;101468.91;4419682;32;20382;-74
2021/03/08 01:15:45;;;;;;;22.35;10.98;;;;;;;6.66;62.64;101474.13;4416884;32;20056;-74
2021/03/08 01:18:14;;;;;;;22.85;10.98;;;;;;;6.68;62.56;101466.91;4412835;32;20486;-77
2021/03/08 01:20:40;;;;;;;26.95;12.40;;;;;;;6.69;62.59;101465.72;4415600;32;20475;-74
2021/03/08 01:23:05;;;;;;;20.77;11.02;;;;;;;6.67;62.96;101467.31;4420665;32;20037;-74
2021/03/08 01:25:31;;;;;;;23.48;10.95;;;;;;;6.73;62.80;101463.75;4420347;32;20471;-74
2021/03/08 01:27:58;;;;;;;24.80;11.77;;;;;;;6.73;63.16;101468.53;4414979;32;20034;-75
2021/03/08 01:30:27;;;;;;;24.42;11.23;;;;;;;6.76;63.07;101473.34;4409362;32;20068;-74
2021/03/08 01:32:52;;;;;;;21.70;11.23;;;;;;;6.77;63.12;101475.75;4416543;32;20151;-74
2021/03/08 01:35:20;;;;;;;29.10;10.88;;;;;;;6.76;62.91;101478.94;4419472;32;20073;-74
2021/03/08 01:37:46;;;;;;;23.23;11.45;;;;;;;6.76;62.78;101473.34;4417947;32;20034;-74
2021/03/08 01:40:14;;;;;;;25.10;11.48;;;;;;;6.74;63.09;101470.13;4419695;32;20064;-74
2021/03/08 01:42:41;;;;;;;21.67;10.40;;;;;;;6.69;63.56;101467.72;4414281;32;20049;-74
2021/03/08 01:45:10;;;;;;;28.15;11.68;;;;;;;6.72;63.92;101469.75;4410175;32;20053;-74
2021/03/08 01:47:37;;;;;;;23.00;11.95;;;;;;;6.60;64.79;101467.31;4418147;32;20122;-74
2021/03/08 01:50:07;;;;;;;23.35;11.10;;;;;;;6.66;64.55;101465.72;4420106;32;20121;-74
2021/03/08 01:52:33;;;;;;;24.30;11.05;;;;;;;6.67;64.90;101462.53;4415282;32;20057;-74
2021/03/08 01:54:59;;;;;;;25.17;12.02;;;;;;;6.73;65.14;101457.34;4418577;32;20034;-74
2021/03/08 01:57:25;;;;;;;23.92;10.73;;;;;;;6.58;66.03;101455.69;4419736;32;20392;-74
2021/03/08 01:59:52;;;;;;;26.55;10.73;;;;;;;6.74;65.57;101450.53;4415529;32;20079;-74
2021/03/08 02:02:17;;;;;;;23.15;11.70;;;;;;;6.56;66.32;101456.09;4416212;32;20249;-74
2021/03/08 02:04:43;;;;;;;21.77;10.77;;;;;;;6.69;65.97;101456.53;4410275;32;20034;-74
2021/03/08 02:07:09;;;;;;;20.02;10.48;;;;;;;6.82;65.55;101455.78;4419175;32;20060;-74
2021/03/08 02:09:35;;;;;;;22.00;11.07;;;;;;;7.23;63.50;101448.66;4418861;32;20049;-74
2021/03/08 02:12:13;;;;;;;18.52;10.13;;;;;;;7.12;64.41;101441.44;4416671;32;20034;-74
2021/03/08 02:17:21;;;;;;;21.00;10.68;;;;;;;7.81;63.25;101445.41;4009818;31;15146217;-75
2021/03/08 02:20:13;;;;;;;22.58;9.77;;;;;;;7.81;63.25;101445.41;4465855;32;20021;-76
2021/03/08 02:25:35;;;;;;;19.70;9.57;;;;;;;8.03;62.21;101430.97;3987982;32;15022433;-74
2021/03/08 02:31:16;;;;;;;17.92;9.50;;;;;;;8.05;61.92;101428.56;3992740;32;15027086;-75
2021/03/08 02:33:52;;;;;;;20.58;9.73;;;;;;;8.05;61.92;101428.56;4437532;32;20739;-75
2021/03/08 02:36:20;;;;;;;20.35;9.50;;;;;;;7.66;62.67;101416.63;4439406;32;20104;-74
2021/03/08 02:38:52;;;;;;;21.05;10.25;;;;;;;7.65;62.75;101414.22;4446760;32;20068;-75
2021/03/08 02:41:20;;;;;;;18.58;9.52;;;;;;;7.72;62.72;101412.22;4443144;32;20111;-75
2021/03/08 02:43:51;;;;;;;20.45;9.50;;;;;;;7.81;62.41;101409.00;4441408;32;20090;-74
2021/03/08 02:46:23;;;;;;;15.02;9.13;;;;;;;7.70;62.40;101409.00;4445210;32;20021;-75
2021/03/08 02:48:51;;;;;;;21.37;9.45;;;;;;;7.83;62.21;101407.38;4446219;32;20041;-74
2021/03/08 02:51:21;;;;;;;22.35;8.88;;;;;;;7.84;61.90;101399.78;4447812;32;20525;-75
2021/03/08 02:53:50;;;;;;;19.15;9.13;;;;;;;7.79;61.81;101403.78;4437572;32;20082;-75
2021/03/08 02:56:19;;;;;;;18.25;8.65;;;;;;;7.78;61.53;101395.78;4442380;32;20591;-75
2021/03/08 02:58:48;;;;;;;16.10;8.82;;;;;;;7.83;61.62;101396.16;4444942;32;21207;-75
2021/03/08 03:01:14;;;;;;;20.27;9.00;;;;;;;7.68;62.50;101400.22;4442416;32;20135;-75
2021/03/08 03:03:44;;;;;;;22.33;10.07;;;;;;;7.75;62.38;101405.00;4433215;32;20038;-74
2021/03/08 03:06:12;;;;;;;22.17;9.13;;;;;;;7.66;62.98;101390.59;4433073;32;20037;-74
2021/03/08 03:08:40;;;;;;;23.52;9.95;;;;;;;7.75;62.96;101391.00;4431094;32;20114;-74
2021/03/08 03:11:09;;;;;;;18.92;9.60;;;;;;;7.75;62.70;101397.41;4432217;32;20068;-75
2021/03/08 03:13:37;;;;;;;21.08;8.98;;;;;;;7.79;62.58;101397.38;4440113;32;20030;-75
2021/03/08 03:16:05;;;;;;;17.98;8.90;;;;;;;7.80;62.81;101387.78;4438119;32;20044;-75
2021/03/08 03:18:33;;;;;;;26.45;10.57;;;;;;;7.83;62.65;101387.75;4430463;32;20446;-75
2021/03/08 03:21:01;;;;;;;19.25;9.05;;;;;;;7.78;62.66;101381.78;4444931;32;20083;-74
2021/03/08 03:23:28;;;;;;;20.23;9.45;;;;;;;7.86;62.47;101381.34;4425698;32;20088;-74
2021/03/08 03:25:55;;;;;;;20.77;10.27;;;;;;;7.90;62.53;101372.94;4432031;32;20378;-74
2021/03/08 03:28:22;;;;;;;23.20;10.15;;;;;;;7.88;62.49;101369.75;4442377;32;20046;-74
2021/03/08 03:30:48;;;;;;;19.92;10.10;;;;;;;7.91;62.16;101375.34;4429097;32;20068;-74
2021/03/08 03:33:15;;;;;;;20.58;10.70;;;;;;;7.99;61.85;101376.94;4438563;32;20402;-75
2021/03/08 03:35:41;;;;;;;18.52;9.32;;;;;;;8.04;61.78;101370.88;4440881;32;20105;-75
2021/03/08 03:38:08;;;;;;;20.85;9.52;;;;;;;8.07;61.49;101370.06;4441469;32;20025;-75
2021/03/08 03:40:35;;;;;;;19.25;9.85;;;;;;;8.15;61.25;101368.03;4434776;32;20069;-74
2021/03/08 03:43:01;;;;;;;23.48;10.70;;;;;;;8.15;60.98;101371.66;4424962;32;20385;-74
2021/03/08 03:45:27;;;;;;;22.73;10.55;;;;;;;8.13;61.16;101370.44;4420303;32;20030;-74
2021/03/08 03:47:53;;;;;;;22.40;10.93;;;;;;;8.10;61.13;101365.66;4423925;32;20344;-74
2021/03/08 03:50:21;;;;;;;22.77;11.80;;;;;;;8.07;61.58;101367.28;4424801;32;20377;-75
2021/03/08 03:52:47;;;;;;;25.40;11.85;;;;;;;8.14;61.43;101366.47;4434820;32;20054;-75
2021/03/08 03:55:15;;;;;;;23.38;11.05;;;;;;;8.12;61.39;101363.25;4434088;32;20071;-74
2021/03/08 03:57:52;;;;;;;23.00;11.43;;;;;;;8.18;61.09;101358.81;4422030;32;20038;-75
2021/03/08 04:00:23;;;;;;;31.33;12.85;;;;;;;8.22;61.33;101367.22;4425287;32;20060;-75
2021/03/08 04:03:01;;;;;;;26.50;11.80;;;;;;;8.24;61.17;101360.03;4433521;32;20084;-75
2021/03/08 04:05:28;;;;;;;24.65;11.25;;;;;;;8.32;61.12;101364.41;4419624;32;20053;-75
2021/03/08 04:07:55;;;;;;;21.48;11.75;;;;;;;8.37;61.18;101365.97;4420935;32;20034;-75
2021/03/08 04:10:21;;;;;;;24.27;11.63;;;;;;;8.41;60.82;101361.97;4422157;32;20079;-75
2021/03/08 04:12:52;;;;;;;28.40;12.43;;;;;;;8.50;60.42;101373.50;4430248;32;20064;-75
2021/03/08 04:15:19;;;;;;;21.98;12.57;;;;;;;8.59;60.41;101376.66;4422875;32;20023;-74
2021/03/08 04:17:47;;;;;;;26.77;12.68;;;;;;;8.64;59.84;101370.62;4433850;32;20022;-75
2021/03/08 04:20:16;;;;;;;25.12;12.73;;;;;;;8.70;59.66;101370.97;4433287;32;20034;-75
2021/03/08 04:22:48;;;;;;;24.52;12.13;;;;;;;8.73;59.08;101370.97;4428264;32;20077;-75
2021/03/08 04:25:16;;;;;;;27.50;12.98;;;;;;;8.69;59.58;101361.78;4425384;32;20048;-75
2021/03/08 04:27:42;;;;;;;23.65;12.10;;;;;;;8.67;59.65;101358.59;4435462;32;20037;-75
2021/03/08 04:30:08;;;;;;;21.42;11.60;;;;;;;8.71;59.47;101362.16;4429099;32;20526;-75
2021/03/08 04:32:34;;;;;;;23.15;12.85;;;;;;;8.82;59.37;101367.69;4419949;32;20074;-75
2021/03/08 04:35:00;;;;;;;28.25;12.43;;;;;;;8.89;59.13;101365.63;4429245;32;20037;-75
2021/03/08 04:37:27;;;;;;;25.15;12.37;;;;;;;8.88;58.48;101374.47;4435893;32;20438;-75
2021/03/08 04:39:54;;;;;;;24.15;12.25;;;;;;;8.92;58.52;101366.81;4427342;32;20034;-75
2021/03/08 04:42:20;;;;;;;22.50;11.98;;;;;;;8.97;58.36;101369.19;4430970;32;20041;-75
2021/03/08 04:44:47;;;;;;;22.73;11.77;;;;;;;9.00;58.52;101372.00;4422154;32;20098;-75
2021/03/08 04:47:17;;;;;;;21.08;11.73;;;;;;;8.96;58.52;101368.38;4420765;32;20134;-75
2021/03/08 04:49:44;;;;;;;24.52;12.20;;;;;;;9.05;58.40;101365.91;4416853;32;20076;-75
2021/03/08 04:52:13;;;;;;;26.85;11.90;;;;;;;9.00;57.97;101359.94;4419203;32;20038;-75
2021/03/08 04:54:42;;;;;;;23.45;11.43;;;;;;;9.02;57.86;101361.12;4427963;32;20064;-75
2021/03/08 04:57:10;;;;;;;20.88;11.15;;;;;;;9.08;57.96;101361.50;4420341;32;20038;-75
2021/03/08 04:59:36;;;;;;;27.20;12.27;;;;;;;9.10;58.42;101356.25;4434486;32;20058;-75
2021/03/08 05:02:02;;;;;;;23.67;12.55;;;;;;;9.04;58.12;101369.13;4429451;32;20041;-75
2021/03/08 05:04:30;;;;;;;26.12;11.30;;;;;;;8.92;58.10;101364.00;4427459;32;20033;-75
2021/03/08 05:06:57;;;;;;;25.45;11.50;;;;;;;8.99;58.18;101352.75;4427339;32;20145;-75
2021/03/08 05:09:24;;;;;;;28.55;12.75;;;;;;;9.05;58.24;101356.72;4420313;32;20038;-75
2021/03/08 05:11:53;;;;;;;27.42;15.05;;;;;;;9.12;58.02;101356.66;4431948;32;20500;-75
2021/03/08 05:14:22;;;;;;;29.92;12.98;;;;;;;9.07;57.97;101363.50;4418380;32;20056;-75
2021/03/08 05:16:49;;;;;;;30.12;13.45;;;;;;;9.11;57.60;101358.66;4420129;32;20379;-75
2021/03/08 05:19:18;;;;;;;23.48;12.02;;;;;;;8.94;58.02;101351.19;4419922;32;20087;-75
2021/03/08 05:21:44;;;;;;;25.30;12.07;;;;;;;9.02;57.59;101363.94;4433516;32;20037;-75
2021/03/08 05:24:12;;;;;;;23.38;12.52;;;;;;;8.94;58.09;101358.78;4413051;32;20038;-75
2021/03/08 05:26:38;;;;;;;29.83;13.20;;;;;;;9.06;57.68;101363.91;4426636;32;20448;-75
2021/03/08 05:29:07;;;;;;;24.60;12.68;;;;;;;8.98;58.13;101360.38;4428987;32;20022;-74
2021/03/08 05:31:40;;;;;;;25.02;12.75;;;;;;;8.83;58.42;101366.47;4421031;32;20042;-75
2021/03/08 05:34:07;;;;;;;22.77;12.30;;;;;;;8.88;58.58;101360.44;4424707;32;20060;-75
2021/03/08 05:36:36;;;;;;;29.85;13.57;;;;;;;8.90;59.05;101366.44;4427593;32;20053;-75
2021/03/08 05:39:04;;;;;;;29.70;13.48;;;;;;;9.00;59.51;101360.75;4432208;32;20552;-75
2021/03/08 05:41:33;;;;;;;26.80;13.43;;;;;;;8.92;60.50;101369.63;4428688;32;20054;-75
2021/03/08 05:44:04;;;;;;;34.30;13.30;;;;;;;8.70;60.54;101365.37;4424288;32;20029;-75
2021/03/08 05:49:49;;;;;;;27.05;12.85;;;;;;;8.85;60.38;101370.50;3989055;32;15022621;-74
2021/03/08 05:55:29;;;;;;;23.10;13.25;;;;;;;9.00;60.61;101366.38;4012930;31;15015410;-75
2021/03/08 06:07:14;;;;;;;27.58;13.30;;;;;;;9.18;59.72;101355.00;3986676;32;15022584;-75
2021/03/08 06:12:21;;;;;;;22.83;12.43;;;;;;;9.05;60.12;101362.31;3997035;32;15027875;-75
2021/03/08 06:14:49;;;;;;;29.08;12.68;;;;;;;9.05;60.12;101362.31;4444194;32;20029;-75
2021/03/08 06:17:16;;;;;;;25.33;12.15;;;;;;;8.73;60.33;101350.53;4431237;32;20021;-75
2021/03/08 06:19:44;;;;;;;28.42;13.68;;;;;;;8.82;60.35;101351.66;4445866;32;20029;-75
2021/03/08 06:22:11;;;;;;;36.08;14.45;;;;;;;8.85;60.02;101350.03;4436829;32;20060;-75
2021/03/08 06:24:39;;;;;;;24.20;12.45;;;;;;;8.90;60.11;101358.03;4438819;32;20033;-75
2021/03/08 06:27:07;;;;;;;30.20;13.18;;;;;;;8.89;59.77;101348.81;4447005;32;20017;-75
2021/03/08 06:29:34;;;;;;;29.40;13.38;;;;;;;8.98;59.81;101337.91;4435306;32;20100;-75
2021/03/08 06:32:01;;;;;;;24.92;12.70;;;;;;;9.14;58.88;101348.63;4431664;32;20046;-75
2021/03/08 06:34:27;;;;;;;28.40;12.85;;;;;;;9.12;59.29;101343.41;4444682;32;20051;-75
2021/03/08 06:36:53;;;;;;;24.98;12.05;;;;;;;9.16;58.49;101340.56;4447792;32;20143;-75
2021/03/08 06:39:20;;;;;;;20.17;12.32;;;;;;;9.23;58.95;101343.28;4447067;32;20417;-76
2021/03/08 06:41:46;;;;;;;23.48;12.15;;;;;;;9.27;58.90;101336.44;4444533;32;20061;-75
2021/03/08 06:44:12;;;;;;;27.85;13.65;;;;;;;9.31;59.22;101342.84;4444157;32;20078;-75
2021/03/08 06:46:38;;;;;;;24.67;12.25;;;;;;;9.35;59.26;101349.22;4434278;32;20034;-75
2021/03/08 06:49:04;;;;;;;23.60;12.00;;;;;;;9.40;59.29;101337.53;4431803;32;20046;-75
2021/03/08 06:51:30;;;;;;;19.85;11.45;;;;;;;9.43;58.19;101345.13;4439222;32;20422;-76
2021/03/08 06:53:55;;;;;;;21.02;11.73;;;;;;;9.53;57.86;101340.59;4439341;32;20059;-75
2021/03/08 06:59:06;;;;;;;19.48;11.27;;;;;;;9.42;58.49;101335.09;3984660;32;15022343;-74
2021/03/08 07:01:33;;;;;;;20.67;12.10;;;;;;;9.39;58.03;101332.34;4436173;32;20026;-74
2021/03/08 07:04:00;;;;;;;27.25;11.30;;;;;;;9.35;58.53;101332.34;4431748;32;20106;-74
2021/03/08 07:06:26;;;;;;;27.48;11.63;;;;;;;9.31;58.93;101333.59;4430695;32;20075;-76
2021/03/08 07:09:05;;;;;;;20.33;11.43;;;;;;;9.31;58.79;101339.22;4421636;32;20072;-76
2021/03/08 07:11:31;;;;;;;22.15;12.05;;;;;;;9.35;59.10;101348.41;4432183;32;20435;-76
2021/03/08 07:13:59;;;;;;;23.23;12.30;;;;;;;9.38;59.48;101341.94;4427380;32;20406;-75
2021/03/08 07:16:39;;;;;;;27.67;12.32;;;;;;;9.44;59.48;101345.91;4424791;32;20399;-75
2021/03/08 07:19:06;;;;;;;27.10;12.48;;;;;;;9.46;59.22;101346.31;4420708;32;20075;-74
2021/03/08 07:21:32;;;;;;;23.90;11.57;;;;;;;9.55;59.49;101353.00;4431948;32;20038;-76
2021/03/08 07:26:51;;;;;;;28.75;12.93;;;;;;;10.13;58.93;101345.56;3984357;32;15022464;-75
2021/03/08 07:29:18;;;;;;;26.77;11.82;;;;;;;10.13;58.93;101345.56;4440322;32;20093;-75
2021/03/08 07:31:47;;;;;;;22.95;11.75;;;;;;;9.75;59.78;101339.97;4435956;32;20033;-75
2021/03/08 07:34:13;;;;;;;22.05;11.60;;;;;;;9.60;59.46;101340.53;4430246;32;20064;-75
2021/03/08 07:36:41;;;;;;;24.58;12.65;;;;;;;9.71;59.67;101344.03;4430819;32;20406;-76
2021/03/08 07:39:17;;;;;;;29.73;13.13;;;;;;;9.83;59.12;101332.25;4427924;32;20069;-75
2021/03/08 07:41:52;;;;;;;24.27;12.23;;;;;;;9.79;59.44;101339.94;4422554;32;20084;-75
2021/03/08 07:44:20;;;;;;;30.80;12.63;;;;;;;9.84;59.71;101348.69;4422862;32;20362;-75
2021/03/08 07:46:46;;;;;;;25.48;12.55;;;;;;;9.96;60.42;101352.97;4425549;32;20046;-75
2021/03/08 07:49:12;;;;;;;22.90;12.43;;;;;;;9.95;59.42;101345.75;4430380;32;20112;-75
2021/03/08 07:51:59;;;;;;;29.27;13.98;;;;;;;9.88;60.01;101341.00;4425069;32;20456;-75
2021/03/08 07:54:25;;;;;;;28.92;13.25;;;;;;;9.66;62.35;101342.47;4418867;32;20107;-74
2021/03/08 07:56:52;;;;;;;27.10;13.07;;;;;;;9.37;63.86;101343.19;4417535;32;20074;-75
2021/03/08 07:59:19;;;;;;;25.73;13.70;;;;;;;9.22;64.65;101342.50;4412919;32;20404;-74
2021/03/08 08:01:44;;;;;;;24.87;14.02;;;;;;;9.16;65.67;101334.94;4416392;32;20405;-75
2021/03/08 08:04:10;;;;;;;27.08;13.73;;;;;;;9.04;67.71;101339.06;4415051;32;20347;-75
2021/03/08 08:06:36;;;;;;;22.35;12.80;;;;;;;9.09;66.53;101341.44;4413541;32;20050;-75
2021/03/08 08:09:02;;;;;;;27.30;14.23;;;;;;;9.09;66.02;101344.25;4418009;32;20120;-75
2021/03/08 08:11:29;;;;;;;25.67;13.25;;;;;;;9.21;66.84;101340.12;4414477;32;20118;-75
2021/03/08 08:14:00;;;;;;;22.85;11.82;;;;;;;9.24;67.40;101340.06;4413957;32;20094;-75
2021/03/08 08:16:29;;;;;;;22.65;11.40;;;;;;;9.17;66.41;101342.16;4415572;32;20084;-76
2021/03/08 08:19:03;;;;;;;21.80;12.55;;;;;;;9.17;66.60;101359.00;4417557;32;20072;-76
2021/03/08 08:21:34;;;;;;;22.93;11.63;;;;;;;9.16;68.10;101341.38;4412702;32;20050;-77
2021/03/08 08:24:03;;;;;;;23.73;11.95;;;;;;;9.31;67.32;101347.66;4415186;32;20038;-78
2021/03/08 08:26:29;;;;;;;23.27;12.65;;;;;;;9.25;67.68;101355.72;4415848;32;20073;-78
2021/03/08 08:28:56;;;;;;;26.80;12.00;;;;;;;9.25;67.93;101352.91;4413650;32;20073;-77
2021/03/08 08:31:22;;;;;;;24.05;12.82;;;;;;;9.19;67.67;101363.00;4424568;32;20107;-76
2021/03/08 08:33:48;;;;;;;26.08;12.93;;;;;;;8.99;68.46;101358.38;4428856;32;20077;-76
2021/03/08 08:41:31;;;;;;;21.77;12.10;;;;;;;9.36;68.97;101366.88;3980216;32;15024319;-75
2021/03/08 08:46:48;;;;;;;23.45;11.85;;;;;;;9.21;71.51;101362.59;3972030;32;15071726;-76
2021/03/08 08:49:18;;;;;;;25.35;11.88;;;;;;;9.21;71.51;101362.59;4416780;32;20103;-75
2021/03/08 08:59:49;;;;;;;20.20;8.93;;;;;;;9.07;70.64;101352.28;3982026;32;15026299;-75
2021/03/08 09:04:50;;;;;;;18.77;9.77;;;;;;;8.68;70.83;101348.94;3981710;32;15023369;-75
2021/03/08 09:09:59;;;;;;;18.40;8.55;;;;;;;9.32;69.56;101344.41;3980470;32;15034899;-75
2021/03/08 09:12:34;;;;;;;16.08;8.75;;;;;;;9.32;69.56;101344.41;4434138;32;20029;-75
2021/03/08 09:15:04;;;;;;;24.77;10.50;;;;;;;9.10;68.51;101343.03;4432777;32;20097;-75
2021/03/08 09:17:33;;;;;;;18.95;9.27;;;;;;;9.24;66.99;101342.09;4432155;32;20103;-75
2021/03/08 09:22:37;;;;;;;21.75;10.95;;;;;;;10.01;64.86;101350.50;3972309;32;15026500;-76
2021/03/08 09:33:07;;;;;;;20.93;11.63;;;;;;;10.00;63.68;101350.91;4002930;31;15020703;-77
2021/03/08 09:38:14;;;;;;;23.63;11.43;;;;;;;10.31;63.78;101349.72;3994398;31;15016133;-76
2021/03/08 09:40:43;;;;;;;21.67;10.88;;;;;;;10.31;63.78;101349.72;4461978;32;20394;-75
2021/03/08 09:43:35;;;;;;;24.75;10.70;;;;;;;9.86;63.86;101343.47;4458749;32;20512;-80
2021/03/08 09:46:05;;;;;;;22.55;11.07;;;;;;;9.91;63.37;101342.19;4459692;32;20059;-78
2021/03/08 09:48:34;;;;;;;19.50;10.55;;;;;;;9.92;62.92;101343.78;4458379;32;20252;-72
2021/03/08 09:51:04;;;;;;;21.70;11.02;;;;;;;10.00;64.14;101340.47;4460372;32;20056;-77
2021/03/08 09:53:33;;;;;;;17.62;10.35;;;;;;;10.03;64.83;101339.63;4459355;32;20074;-77
2021/03/08 09:56:07;;;;;;;19.60;10.55;;;;;;;9.87;61.55;101333.00;4459836;32;20477;-78
2021/03/08 09:58:33;;;;;;;19.77;9.68;;;;;;;9.86;61.91;101331.41;4458864;32;20053;-77
2021/03/08 10:01:10;;;;;;;16.70;9.75;;;;;;;9.78;61.66;101333.50;4445303;32;20456;-78
2021/03/08 10:03:35;;;;;;;19.48;10.60;;;;;;;9.55;62.97;101347.38;4462182;32;20083;-79
2021/03/08 10:06:01;;;;;;;24.70;10.70;;;;;;;9.40;64.44;101342.34;4460372;32;20067;-78
2021/03/08 10:08:31;;;;;;;19.58;9.43;;;;;;;9.24;64.88;101342.88;4448509;32;20079;-77
2021/03/08 10:10:57;;;;;;;31.85;9.68;;;;;;;9.00;66.75;101343.91;4457486;32;20041;-77
2021/03/08 10:13:24;;;;;;;27.13;10.50;;;;;;;8.83;67.13;101344.84;4461390;32;20044;-77
2021/03/08 10:18:32;;;;;;;17.80;9.25;;;;;;;9.12;66.04;101340.59;3996383;32;15025378;-91
2021/03/08 10:21:02;;;;;;;17.17;8.23;;;;;;;9.12;66.04;101340.59;4446858;32;20047;-89
2021/03/08 10:23:31;;;;;;;15.60;9.65;;;;;;;8.66;66.21;101340.16;4435084;32;20404;-91
2021/03/08 10:26:06;;;;;;;20.85;10.40;;;;;;;8.73;67.28;101328.87;4449060;32;20033;-91
2021/03/08 10:28:36;;;;;;;;;;;;;;;8.72;67.61;101316.06;4436613;32;20097;-91
2021/03/08 10:31:04;;;;;;;17.00;10.63;;;;;;;8.80;67.19;101314.00;4427656;32;19956;-89
2021/03/08 10:33:31;;;;;;;14.73;9.35;;;;;;;8.78;67.45;101322.84;4433916;32;20147;-90
2021/03/08 10:35:57;;;;;;;17.37;8.43;;;;;;;8.87;66.38;101317.53;4433110;32;20072;-90
2021/03/08 10:38:27;;;;;;;12.95;8.52;;;;;;;8.67;66.66;101315.69;4430651;32;20706;-90
2021/03/08 10:40:56;;;;;;;19.00;9.20;;;;;;;8.65;66.75;101306.91;4432670;32;20045;-91
2021/03/08 10:43:23;;;;;;;15.90;8.23;;;;;;;8.81;67.09;101313.56;4431212;32;20468;-90
2021/03/08 10:45:51;;;;;;;18.60;8.65;;;;;;;8.85;66.96;101310.75;4434357;32;20029;-91
2021/03/08 10:48:17;;;;;;;16.70;9.45;;;;;;;8.90;67.43;101307.50;4449409;32;20080;-91
2021/03/08 10:50:52;;;;;;;13.27;8.10;;;;;;;9.17;67.64;101326.09;4448125;32;20380;-92
2021/03/08 10:53:19;;;;;;;14.80;8.23;;;;;;;9.19;66.27;101323.69;4434283;32;20041;-90
2021/03/08 10:55:46;;;;;;;14.02;6.80;;;;;;;9.18;66.21;101327.69;4433915;32;20033;-90
2021/03/08 10:58:13;;;;;;;14.65;7.57;;;;;;;9.13;64.91;101322.53;4448311;32;20033;-89
2021/03/08 11:00:41;;;;;;;18.35;7.50;;;;;;;9.23;66.56;101318.03;4433628;32;20021;-92
2021/03/08 11:06:12;;;;;;;15.23;6.60;;;;;;;9.84;65.28;101326.22;3963155;32;15029178;-79
2021/03/08 11:08:40;;;;;;;12.13;6.55;;;;;;;9.84;65.28;101326.22;4403194;32;20122;-79
2021/03/08 11:11:15;;;;;;;12.57;6.75;;;;;;;9.56;65.22;101323.72;4413286;32;20053;-77
2021/03/08 11:13:40;;;;;;;9.73;4.03;;;;;;;9.74;65.17;101324.31;4413664;32;20033;-76
2021/03/08 11:16:10;;;;;;;6.47;4.00;;;;;;;9.78;63.11;101307.41;4417365;32;20081;-81
2021/03/08 11:18:36;;;;;;;12.40;6.32;;;;;;;9.96;65.02;101305.97;4413324;32;20077;-74
2021/03/08 11:24:14;;;;;;;9.80;5.05;;;;;;;10.23;62.65;101308.88;3982643;32;15021953;-80
2021/03/08 11:26:40;;;;;;;7.47;4.82;;;;;;;10.30;61.19;101310.78;4440301;32;20064;-77
2021/03/08 11:29:05;;;;;;;9.27;5.12;;;;;;;10.34;61.45;101297.47;4435919;32;20076;-78
2021/03/08 11:31:31;;;;;;;12.68;5.95;;;;;;;10.45;63.73;101292.47;4434841;32;20055;-78
2021/03/08 11:33:57;;;;;;;16.15;6.85;;;;;;;10.46;61.55;101306.12;4436373;32;20076;-78
2021/03/08 11:36:28;;;;;;;11.05;6.53;;;;;;;10.54;61.71;101293.56;4437758;32;20514;-80
2021/03/08 11:38:54;;;;;;;14.75;7.35;;;;;;;10.31;61.78;101301.91;4440129;32;20092;-79
2021/03/08 11:41:20;;;;;;;13.75;6.80;;;;;;;10.27;62.71;101298.37;4432603;32;20429;-79
2021/03/08 11:43:45;;;;;;;14.27;7.60;;;;;;;10.32;60.05;101294.28;4438327;32;20469;-78
2021/03/08 11:46:11;;;;;;;12.07;6.12;;;;;;;10.21;60.23;101296.47;4434650;32;20057;-79
2021/03/08 11:48:37;;;;;;;14.35;6.35;;;;;;;10.12;59.62;101307.44;4432513;32;20335;-79
2021/03/08 11:51:03;;;;;;;13.18;6.93;;;;;;;10.13;59.98;101294.94;4436381;32;20065;-77
2021/03/08 11:53:29;;;;;;;13.00;6.53;;;;;;;10.25;59.55;101291.56;4434757;32;20507;-79
2021/03/08 11:55:55;;;;;;;14.07;7.22;;;;;;;10.22;60.24;101298.03;4435081;32;20470;-79
2021/03/08 11:58:20;;;;;;;12.80;6.72;;;;;;;10.17;59.58;101295.69;4428914;32;20466;-78
2021/03/08 12:00:46;;;;;;;15.30;7.10;;;;;;;10.15;60.15;101301.75;4433278;32;20091;-77
2021/03/08 12:03:12;;;;;;;14.60;7.65;;;;;;;10.13;59.85;101300.56;4420028;32;20069;-77
2021/03/08 12:05:37;;;;;;;12.40;6.68;;;;;;;10.26;59.69;101301.59;4419376;32;20445;-77
2021/03/08 12:08:03;;;;;;;13.15;6.95;;;;;;;10.32;59.85;101303.53;4421725;32;20088;-78
2021/03/08 12:10:29;;;;;;;17.10;6.70;;;;;;;10.39;59.30;101306.22;4423795;32;20146;-79
2021/03/08 12:12:54;;;;;;;18.75;7.62;;;;;;;10.39;59.72;101302.63;4422706;32;20081;-80
2021/03/08 12:15:20;;;;;;;14.23;6.60;;;;;;;10.22;59.90;101306.47;4420762;32;20105;-79
2021/03/08 12:17:46;;;;;;;12.55;7.12;;;;;;;10.27;59.74;101297.59;4421032;32;20095;-78
2021/03/08 12:20:12;;;;;;;12.77;6.97;;;;;;;10.47;60.39;101306.94;4418972;32;20077;-76
2021/03/08 12:22:39;;;;;;;12.15;7.68;;;;;;;10.51;59.35;101296.41;4420624;32;20046;-78
2021/03/08 12:25:07;;;;;;;13.23;7.82;;;;;;;10.55;59.80;101302.81;4419217;32;20042;-76
2021/03/08 12:27:33;;;;;;;13.85;7.43;;;;;;;10.56;59.43;101308.00;4421178;32;20063;-80
2021/03/08 12:29:59;;;;;;;13.27;6.75;;;;;;;10.29;59.93;101303.56;4424025;32;20058;-80
2021/03/08 12:32:25;;;;;;;13.02;6.80;;;;;;;10.35;60.60;101301.87;4425292;32;20381;-80
2021/03/08 12:34:51;;;;;;;15.38;6.75;;;;;;;10.42;60.15;101315.84;4414456;32;20147;-78